Roslyn — WDH3835 — position and weather

sailwx.info

Track history (hours):
 
Tides and Currents Weather Stations Pressure Air Temp Water Temp Dewpoint Dewpoint Depression Visibility Wind Speed Wind Dir Waves Ship Positions

Roslyn

Owner: N.R. Broussard Landing, Inc., Abbeville, LA. More information available from US FCC via Universal Licensing System and Coast Guard Vessel Documentation Center.

Last reported at 2018-May-11 21:12 UTC. Time now 2018-Jun-23 11:53 UTC.
Position N 29°34' W 090°29'.
Warning: this ship's position is 42 days out of date.

Length 20 m; draft 2.5 m.

Type: Tug. MMSI: 367611430.

Date/timePositionNaut miles runAvg speedWind from/ knotsBaromVisibWave heightAir tempDewpointWater temp
2018-May-11 21:12N 29°34' W 090°29'2 8.2
2018-May-11 20:57N 29°34' W 090°31'4 8.0
2018-May-11 20:30N 29°34' W 090°35'4 7.6
2018-May-11 20:00N 29°36' W 090°39'1 1.3
2018-May-11 19:30N 29°36' W 090°40'0 0.0
2018-May-11 19:00N 29°36' W 090°40'0 0.0
2018-May-11 18:30N 29°36' W 090°40'0 0.0
2018-May-11 18:00N 29°36' W 090°40'0 0.0
2018-May-11 17:30N 29°36' W 090°40'0 0.0
2018-May-11 17:00N 29°36' W 090°40'0 0.0
2018-May-11 16:30N 29°36' W 090°40'0 0.0
2018-May-11 16:00N 29°36' W 090°40'0 0.0
2018-May-11 15:30N 29°36' W 090°40'0 0.0
2018-May-11 15:00N 29°36' W 090°40'0 0.0
2018-May-11 14:30N 29°36' W 090°40'0 0.0
2018-May-11 14:00N 29°36' W 090°40'0 0.0
2018-May-11 13:30N 29°36' W 090°40'0 0.6
2018-May-11 13:00N 29°36' W 090°40'0 0.6
2018-May-11 12:30N 29°36' W 090°40'0 0.0
2018-May-11 12:00N 29°36' W 090°40'0 0.0
2018-May-11 11:30N 29°36' W 090°40'0 0.0
2018-May-11 11:00N 29°36' W 090°40'0 0.0
2018-May-11 10:30N 29°36' W 090°40'0 0.0
2018-May-11 10:00N 29°36' W 090°40'0 0.0
2018-May-11 09:30N 29°36' W 090°40'0 0.0
2018-May-11 09:00N 29°36' W 090°40'0 0.0
2018-May-11 08:30N 29°36' W 090°40'0 0.0
2018-May-11 08:00N 29°36' W 090°40'0 0.0
2018-May-11 07:30N 29°36' W 090°40'0 0.0
2018-May-11 07:00N 29°36' W 090°40'1 1.7
2018-May-11 06:30N 29°36' W 090°39'2 3.5
2018-May-11 06:00N 29°35' W 090°37'2 3.1
2018-May-11 05:29N 29°35' W 090°35'8 1.6
2018-May-11 00:23N 29°33' W 090°26'3 8.3
2018-May-11 00:00N 29°34' W 090°29'4 8.1
2018-May-10 23:30N 29°34' W 090°34'4 7.5
2018-May-10 23:00N 29°35' W 090°38'4 7.9
2018-May-10 22:30N 29°37' W 090°42'3 6.5
2018-May-10 22:00N 29°34' W 090°44'4 7.7
2018-May-10 21:30N 29°32' W 090°48'  
2018-May-08 13:28N 29°17' W 091°08'0 0.0
2018-May-08 12:59N 29°17' W 091°08'0 0.0
2018-May-08 12:29N 29°17' W 091°08'0 0.0
2018-May-08 07:47N 29°17' W 091°08'  
Track history (hours):
 
Tides and Currents Weather Stations Pressure Air Temp Water Temp Dewpoint Dewpoint Depression Visibility Wind Speed Wind Dir Waves Ship Positions

Roslyn

Owner: N.R. Broussard Landing, Inc., Abbeville, LA. More information available from US FCC via Universal Licensing System and Coast Guard Vessel Documentation Center.

Last reported at 2018-May-11 21:12 UTC. Time now 2018-Jun-23 11:53 UTC.
Position N 29°34' W 090°29'.
Warning: this ship's position is 42 days out of date.

Length 20 m; draft 2.5 m.

Type: Tug. MMSI: 367611430.

Date/timePositionNaut miles runAvg speedWind from/ knotsBaromVisibWave heightAir tempDewpointWater temp
2018-May-11 21:12N 29°34' W 090°29'2 8.2
2018-May-11 20:57N 29°34' W 090°31'4 8.0
2018-May-11 20:30N 29°34' W 090°35'4 7.6
2018-May-11 20:00N 29°36' W 090°39'1 1.3
2018-May-11 19:30N 29°36' W 090°40'0 0.0
2018-May-11 19:00N 29°36' W 090°40'0 0.0
2018-May-11 18:30N 29°36' W 090°40'0 0.0
2018-May-11 18:00N 29°36' W 090°40'0 0.0
2018-May-11 17:30N 29°36' W 090°40'0 0.0
2018-May-11 17:00N 29°36' W 090°40'0 0.0
2018-May-11 16:30N 29°36' W 090°40'0 0.0
2018-May-11 16:00N 29°36' W 090°40'0 0.0
2018-May-11 15:30N 29°36' W 090°40'0 0.0
2018-May-11 15:00N 29°36' W 090°40'0 0.0
2018-May-11 14:30N 29°36' W 090°40'0 0.0
2018-May-11 14:00N 29°36' W 090°40'0 0.0
2018-May-11 13:30N 29°36' W 090°40'0 0.6
2018-May-11 13:00N 29°36' W 090°40'0 0.6
2018-May-11 12:30N 29°36' W 090°40'0 0.0
2018-May-11 12:00N 29°36' W 090°40'0 0.0
2018-May-11 11:30N 29°36' W 090°40'0 0.0
2018-May-11 11:00N 29°36' W 090°40'0 0.0
2018-May-11 10:30N 29°36' W 090°40'0 0.0
2018-May-11 10:00N 29°36' W 090°40'0 0.0
2018-May-11 09:30N 29°36' W 090°40'0 0.0
2018-May-11 09:00N 29°36' W 090°40'0 0.0
2018-May-11 08:30N 29°36' W 090°40'0 0.0
2018-May-11 08:00N 29°36' W 090°40'0 0.0
2018-May-11 07:30N 29°36' W 090°40'0 0.0
2018-May-11 07:00N 29°36' W 090°40'1 1.7
2018-May-11 06:30N 29°36' W 090°39'2 3.5
2018-May-11 06:00N 29°35' W 090°37'2 3.1
2018-May-11 05:29N 29°35' W 090°35'8 1.6
2018-May-11 00:23N 29°33' W 090°26'3 8.3
2018-May-11 00:00N 29°34' W 090°29'4 8.1
2018-May-10 23:30N 29°34' W 090°34'4 7.5
2018-May-10 23:00N 29°35' W 090°38'4 7.9
2018-May-10 22:30N 29°37' W 090°42'3 6.5
2018-May-10 22:00N 29°34' W 090°44'4 7.7
2018-May-10 21:30N 29°32' W 090°48'  
2018-May-08 13:28N 29°17' W 091°08'0 0.0
2018-May-08 12:59N 29°17' W 091°08'0 0.0
2018-May-08 12:29N 29°17' W 091°08'0 0.0
2018-May-08 07:47N 29°17' W 091°08'  

Dump ship's entire track history